createdAt,value
2018-07-23T00:01:30.227Z,9.10
2018-07-23T00:03:58.723Z,8.60
2018-07-23T00:06:27.219Z,8.77
2018-07-23T00:08:55.648Z,8.27
2018-07-23T00:11:25.554Z,8.70
2018-07-23T00:13:54.066Z,8.83
2018-07-23T00:16:22.570Z,8.43
2018-07-23T00:18:51.022Z,8.60
2018-07-23T00:21:19.761Z,8.17
2018-07-23T00:23:48.400Z,8.60
2018-07-23T00:26:16.808Z,9.10
2018-07-23T00:28:45.426Z,9.00
2018-07-23T00:31:13.999Z,8.60
2018-07-23T00:33:42.502Z,8.40
2018-07-23T00:36:11.008Z,8.73
2018-07-23T00:38:39.902Z,8.50
2018-07-23T00:41:08.407Z,8.03
2018-07-23T00:43:36.957Z,7.97
2018-07-23T00:46:05.478Z,8.50
2018-07-23T00:48:33.899Z,8.90
2018-07-23T00:51:02.345Z,7.93
2018-07-23T00:53:30.798Z,8.77
2018-07-23T00:55:59.251Z,8.90
2018-07-23T00:58:27.686Z,8.37
2018-07-23T01:00:56.257Z,8.50
2018-07-23T01:03:24.804Z,8.37
2018-07-23T01:05:53.305Z,8.60
2018-07-23T01:08:21.991Z,7.97
2018-07-23T01:10:50.470Z,8.73
2018-07-23T01:13:18.869Z,8.53
2018-07-23T01:15:47.275Z,8.80
2018-07-23T01:18:15.730Z,8.90
2018-07-23T01:20:44.163Z,9.30
2018-07-23T01:23:12.652Z,8.80
2018-07-23T01:25:41.189Z,8.20
2018-07-23T01:28:09.603Z,8.93
2018-07-23T01:30:38.087Z,8.73
2018-07-23T01:33:06.669Z,8.50
2018-07-23T01:35:35.211Z,8.27
2018-07-23T01:38:03.752Z,8.53
2018-07-23T01:40:35.158Z,8.63
2018-07-23T01:43:03.754Z,8.93
2018-07-23T01:45:32.202Z,8.37
2018-07-23T01:48:00.660Z,9.10
2018-07-23T01:50:29.312Z,7.83
2018-07-23T01:52:58.043Z,10.10
2018-07-23T01:55:26.580Z,10.10
2018-07-23T01:57:55.133Z,10.90
2018-07-23T02:00:24.948Z,10.53
2018-07-23T02:02:53.367Z,11.50
2018-07-23T02:05:22.043Z,10.17
2018-07-23T02:07:50.631Z,9.37
2018-07-23T02:10:19.204Z,10.00
2018-07-23T02:12:48.084Z,10.57
2018-07-23T02:15:16.532Z,10.80
2018-07-23T02:17:45.024Z,11.13
2018-07-23T02:20:13.731Z,12.90
2018-07-23T02:22:42.190Z,13.37
2018-07-23T02:25:10.786Z,13.77
2018-07-23T02:27:39.322Z,15.00
2018-07-23T02:30:07.863Z,14.23
2018-07-23T02:32:36.428Z,13.87
2018-07-23T02:35:04.923Z,13.17
2018-07-23T02:37:33.417Z,13.13
2018-07-23T02:40:01.965Z,14.23
2018-07-23T02:42:30.506Z,14.33
2018-07-23T02:44:59.035Z,14.30
2018-07-23T02:47:29.259Z,14.43
2018-07-23T02:49:57.823Z,13.87
2018-07-23T02:52:26.441Z,13.60
2018-07-23T02:54:54.855Z,13.63
2018-07-23T02:57:23.427Z,12.97
2018-07-23T02:59:51.893Z,12.37
2018-07-23T03:02:20.441Z,12.67
2018-07-23T03:04:48.864Z,13.17
2018-07-23T03:07:17.381Z,12.30
2018-07-23T03:09:45.931Z,12.50
2018-07-23T03:12:20.830Z,12.10
2018-07-23T03:14:49.270Z,11.30
2018-07-23T03:17:18.987Z,11.77
2018-07-23T03:19:47.471Z,11.23
2018-07-23T03:22:15.910Z,11.20
2018-07-23T03:24:44.435Z,11.03
2018-07-23T03:27:12.957Z,11.60
2018-07-23T03:29:41.398Z,10.83
2018-07-23T03:32:10.011Z,11.13
2018-07-23T03:34:38.419Z,11.37
2018-07-23T03:37:06.864Z,11.00
2018-07-23T03:39:35.370Z,11.30
2018-07-23T03:42:03.878Z,11.23
2018-07-23T03:44:32.355Z,11.70
2018-07-23T03:47:00.842Z,12.23
2018-07-23T03:49:29.426Z,12.33
2018-07-23T03:51:57.888Z,12.30
2018-07-23T03:54:26.387Z,12.90
2018-07-23T03:56:54.964Z,12.90
2018-07-23T03:59:23.574Z,11.73
2018-07-23T04:01:52.044Z,12.43
2018-07-23T04:04:20.647Z,11.23
2018-07-23T04:06:49.598Z,11.53
2018-07-23T04:09:18.159Z,11.47
2018-07-23T04:11:46.664Z,10.87
2018-07-23T04:14:15.567Z,9.70
2018-07-23T04:16:43.988Z,8.77
2018-07-23T04:19:12.526Z,9.53
2018-07-23T04:21:40.937Z,9.73
2018-07-23T04:24:09.344Z,9.77
2018-07-23T04:26:37.860Z,9.77
2018-07-23T04:29:06.357Z,9.93
2018-07-23T04:31:35.140Z,9.57
2018-07-23T04:34:03.801Z,9.60
2018-07-23T04:36:32.567Z,9.57
2018-07-23T04:39:01.929Z,9.03
2018-07-23T04:41:30.904Z,9.10
2018-07-23T04:43:59.410Z,8.80
2018-07-23T04:46:28.610Z,10.13
2018-07-23T04:48:57.131Z,10.97
2018-07-23T04:51:25.714Z,13.10
2018-07-23T04:53:54.630Z,12.03
2018-07-23T04:56:25.203Z,14.27
2018-07-23T04:58:53.618Z,12.57
2018-07-23T05:01:22.242Z,11.97
2018-07-23T05:03:50.768Z,11.20
2018-07-23T05:06:19.187Z,11.33
2018-07-23T05:08:47.696Z,11.43
2018-07-23T05:11:16.186Z,10.10
2018-07-23T05:13:44.712Z,9.50
2018-07-23T05:16:13.160Z,8.90
2018-07-23T05:18:41.879Z,8.53
2018-07-23T05:21:10.445Z,7.80
2018-07-23T05:23:39.160Z,8.67
2018-07-23T05:26:08.272Z,8.37
2018-07-23T05:28:36.832Z,8.90
2018-07-23T05:31:05.491Z,8.53
2018-07-23T05:33:34.101Z,8.97
2018-07-23T05:36:02.603Z,8.83
2018-07-23T05:38:31.038Z,9.07
2018-07-23T05:40:59.508Z,8.33
2018-07-23T05:43:28.064Z,8.70
2018-07-23T05:45:56.650Z,8.10
2018-07-23T05:48:25.324Z,8.00
2018-07-23T05:50:53.772Z,7.80
2018-07-23T05:53:22.422Z,7.77
2018-07-23T05:55:50.993Z,7.77
2018-07-23T05:58:19.490Z,6.87
2018-07-23T06:00:47.917Z,6.93
2018-07-23T06:03:16.407Z,7.83
2018-07-23T06:05:44.824Z,7.93
2018-07-23T06:08:13.232Z,7.50
2018-07-23T06:10:41.729Z,8.47
2018-07-23T06:13:10.284Z,8.33
2018-07-23T06:15:38.728Z,8.10
2018-07-23T06:18:07.659Z,8.30
2018-07-23T06:20:36.280Z,8.50
2018-07-23T06:23:04.787Z,8.70
2018-07-23T06:25:33.306Z,9.03
2018-07-23T06:28:01.777Z,10.03
2018-07-23T06:30:30.428Z,10.77
2018-07-23T06:32:58.892Z,10.60
2018-07-23T06:35:27.371Z,9.80
2018-07-23T06:37:56.023Z,10.13
2018-07-23T06:40:24.562Z,10.03
2018-07-23T06:42:53.359Z,10.07
2018-07-23T06:45:21.942Z,9.73
2018-07-23T06:47:50.352Z,10.10
2018-07-23T06:50:19.604Z,10.47
2018-07-23T06:52:48.342Z,9.50
2018-07-23T06:55:17.460Z,9.50
2018-07-23T06:57:46.015Z,10.80
2018-07-23T07:00:14.504Z,9.87
2018-07-23T07:02:43.027Z,11.50
2018-07-23T07:05:11.465Z,11.23
2018-07-23T07:07:40.203Z,12.57
2018-07-23T07:10:08.682Z,12.10
2018-07-23T07:12:37.151Z,11.80
2018-07-23T07:15:05.936Z,11.23
2018-07-23T07:17:34.371Z,12.60
2018-07-23T07:20:02.922Z,12.50
2018-07-23T07:22:31.472Z,12.70
2018-07-23T07:24:59.941Z,13.37
2018-07-23T07:27:29.207Z,14.13
2018-07-23T07:29:57.601Z,12.40
2018-07-23T07:32:26.060Z,13.33
2018-07-23T07:34:54.394Z,13.97
2018-07-23T07:37:22.927Z,13.27
2018-07-23T07:39:51.491Z,13.20
2018-07-23T07:42:22.106Z,13.77
2018-07-23T07:44:50.635Z,15.70
2018-07-23T07:47:19.090Z,17.40
2018-07-23T07:49:47.520Z,16.80
2018-07-23T07:52:16.314Z,16.97
2018-07-23T07:54:45.896Z,16.73
2018-07-23T07:57:14.555Z,17.40
2018-07-23T07:59:43.035Z,17.00
2018-07-23T08:02:11.463Z,17.57
2018-07-23T08:04:39.972Z,17.80
2018-07-23T08:07:08.534Z,19.13
2018-07-23T08:09:36.992Z,16.77
2018-07-23T08:12:05.419Z,18.43
2018-07-23T08:14:33.852Z,18.00
2018-07-23T08:17:03.106Z,16.90
2018-07-23T08:19:31.710Z,16.47
2018-07-23T08:22:00.350Z,16.23
2018-07-23T08:24:28.851Z,16.53
2018-07-23T08:26:56.969Z,14.63
2018-07-23T08:29:25.558Z,14.67
2018-07-23T08:31:54.110Z,15.07
2018-07-23T08:34:22.688Z,14.83
2018-07-23T08:36:51.261Z,14.97
2018-07-23T08:39:19.812Z,13.67
2018-07-23T08:41:48.317Z,13.43
2018-07-23T08:44:17.059Z,13.47
2018-07-23T08:46:45.590Z,15.30
2018-07-23T08:49:14.340Z,13.60
2018-07-23T08:51:42.807Z,13.73
2018-07-23T08:54:11.360Z,12.80
2018-07-23T08:56:39.866Z,12.27
2018-07-23T08:59:08.730Z,11.83
2018-07-23T09:01:37.360Z,12.00
2018-07-23T09:04:06.524Z,11.77
2018-07-23T09:06:35.131Z,10.57
2018-07-23T09:09:04.528Z,11.20
2018-07-23T09:11:33.105Z,11.73
2018-07-23T09:14:01.549Z,12.47
2018-07-23T09:16:30.067Z,11.90
2018-07-23T09:18:58.535Z,11.40
2018-07-23T09:21:27.060Z,11.87
2018-07-23T09:23:55.741Z,10.90
2018-07-23T09:26:24.261Z,10.73
2018-07-23T09:28:53.990Z,10.33
2018-07-23T09:31:22.777Z,10.17
2018-07-23T09:33:51.242Z,10.83
2018-07-23T09:36:19.742Z,11.47
2018-07-23T09:38:48.579Z,10.07
2018-07-23T09:41:17.048Z,11.27
2018-07-23T09:43:45.602Z,11.57
2018-07-23T09:46:14.139Z,11.10
2018-07-23T09:48:42.610Z,11.57
2018-07-23T09:51:11.098Z,11.40
2018-07-23T09:53:39.575Z,12.10
2018-07-23T09:56:08.583Z,13.37
2018-07-23T09:58:37.126Z,12.03
2018-07-23T10:01:12.015Z,11.83
2018-07-23T10:03:41.383Z,11.83
2018-07-23T10:06:09.442Z,12.03
2018-07-23T10:08:37.879Z,11.60
2018-07-23T10:11:06.152Z,12.57
2018-07-23T10:13:34.752Z,12.40
2018-07-23T10:16:02.894Z,12.33
2018-07-23T10:18:31.392Z,12.97
2018-07-23T10:20:59.944Z,13.00
2018-07-23T10:23:28.825Z,12.77
2018-07-23T10:25:57.412Z,12.30
2018-07-23T10:28:26.122Z,10.23
2018-07-23T10:30:54.579Z,11.87
2018-07-23T10:33:23.021Z,11.90
2018-07-23T10:35:51.478Z,10.33
2018-07-23T10:38:19.942Z,10.60
2018-07-23T10:40:48.401Z,11.70
2018-07-23T10:43:16.949Z,11.67
2018-07-23T10:45:45.510Z,11.27
2018-07-23T10:48:14.036Z,11.57
2018-07-23T10:50:42.528Z,11.70
2018-07-23T10:53:11.073Z,11.60
2018-07-23T10:55:39.607Z,11.33
2018-07-23T10:58:07.860Z,12.00
2018-07-23T11:00:36.334Z,12.30
2018-07-23T11:03:04.800Z,11.60
2018-07-23T11:05:33.629Z,11.00
2018-07-23T11:08:01.858Z,11.27
2018-07-23T11:10:30.486Z,10.60
2018-07-23T11:12:58.964Z,9.90
2018-07-23T11:15:27.415Z,10.93
2018-07-23T11:17:55.945Z,10.30
2018-07-23T11:20:24.396Z,10.60
2018-07-23T11:22:52.862Z,9.47
2018-07-23T11:25:39.087Z,9.87
2018-07-23T11:27:49.975Z,9.50
2018-07-23T11:30:18.419Z,9.00
2018-07-23T11:32:46.889Z,8.37
2018-07-23T11:35:15.492Z,8.50
2018-07-23T11:37:43.897Z,8.37
2018-07-23T11:40:12.391Z,8.20
2018-07-23T11:42:40.971Z,9.10
2018-07-23T11:45:09.575Z,9.33
2018-07-23T11:47:38.041Z,9.30
2018-07-23T11:50:06.752Z,10.23
2018-07-23T11:52:35.430Z,9.93
2018-07-23T11:55:03.925Z,8.93
2018-07-23T11:57:32.371Z,9.47
2018-07-23T12:00:01.073Z,8.80
2018-07-23T12:02:29.512Z,9.77
2018-07-23T12:04:58.167Z,9.03
2018-07-23T12:07:26.403Z,8.90
2018-07-23T12:09:54.870Z,8.93
2018-07-23T12:12:23.394Z,9.10
2018-07-23T12:14:51.827Z,9.03
2018-07-23T12:17:21.740Z,8.67
2018-07-23T12:19:50.358Z,8.00
2018-07-23T12:22:18.899Z,8.60
2018-07-23T12:24:47.378Z,8.20
2018-07-23T12:27:15.847Z,8.20
2018-07-23T12:29:44.327Z,7.70
2018-07-23T12:32:12.899Z,7.90
2018-07-23T12:34:41.964Z,7.73
2018-07-23T12:37:10.515Z,7.70
2018-07-23T12:39:39.125Z,6.73
2018-07-23T12:42:07.575Z,7.57
2018-07-23T12:44:36.032Z,7.00
2018-07-23T12:47:04.574Z,6.93
2018-07-23T12:49:33.010Z,7.13
2018-07-23T12:52:02.191Z,7.60
2018-07-23T12:54:30.699Z,6.80
2018-07-23T12:56:59.279Z,8.07
2018-07-23T12:59:27.866Z,8.07
2018-07-23T13:01:56.446Z,7.43
2018-07-23T13:04:24.871Z,7.37
2018-07-23T13:06:53.998Z,7.70
2018-07-23T13:09:22.551Z,7.93
2018-07-23T13:11:51.016Z,8.17
2018-07-23T13:14:19.603Z,9.10
2018-07-23T13:16:48.149Z,8.20
2018-07-23T13:19:16.603Z,7.57
2018-07-23T13:21:45.007Z,7.57
2018-07-23T13:24:13.474Z,7.60
2018-07-23T13:26:42.085Z,7.50
2018-07-23T13:29:10.954Z,7.57
2018-07-23T13:31:39.479Z,7.20
2018-07-23T13:34:07.934Z,7.73
2018-07-23T13:36:37.071Z,7.83
2018-07-23T13:39:08.887Z,7.60
2018-07-23T13:41:37.492Z,7.37
2018-07-23T13:44:06.015Z,7.90
2018-07-23T13:46:34.601Z,7.83
2018-07-23T13:49:03.305Z,7.77
2018-07-23T13:51:31.748Z,8.10
2018-07-23T13:54:01.755Z,7.97
2018-07-23T13:56:30.264Z,7.47
2018-07-23T13:58:59.176Z,7.57
2018-07-23T14:01:27.704Z,7.40
2018-07-23T14:03:56.213Z,7.47
2018-07-23T14:06:24.868Z,7.43
2018-07-23T14:08:53.354Z,7.23
2018-07-23T14:11:21.851Z,7.07
2018-07-23T14:13:50.325Z,7.23
2018-07-23T14:16:18.795Z,7.60
2018-07-23T14:18:47.504Z,6.80
2018-07-23T14:21:16.032Z,6.73
2018-07-23T14:23:44.524Z,6.87
2018-07-23T14:26:12.991Z,6.60
2018-07-23T14:28:42.293Z,6.63
2018-07-23T14:31:10.930Z,6.87
2018-07-23T14:33:39.531Z,6.27
2018-07-23T14:36:08.250Z,5.87
2018-07-23T14:38:36.892Z,6.00
2018-07-23T14:41:05.399Z,5.10
2018-07-23T14:43:33.860Z,5.93
2018-07-23T14:46:02.564Z,5.12
2018-07-23T14:48:30.719Z,5.25
2018-07-23T14:50:59.242Z,5.40
2018-07-23T14:53:27.848Z,5.40
2018-07-23T14:55:56.294Z,5.17
2018-07-23T14:58:24.726Z,5.10
2018-07-23T15:00:53.399Z,4.90
2018-07-23T15:03:22.056Z,5.17
2018-07-23T15:05:50.635Z,4.80
2018-07-23T15:08:19.225Z,4.62
2018-07-23T15:10:47.887Z,4.75
2018-07-23T15:13:16.522Z,4.30
2018-07-23T15:15:45.724Z,4.53
2018-07-23T15:18:14.562Z,4.70
2018-07-23T15:20:43.722Z,4.50
2018-07-23T15:23:12.451Z,4.95
2018-07-23T15:25:41.383Z,5.40
2018-07-23T15:28:09.931Z,5.05
2018-07-23T15:30:38.535Z,5.25
2018-07-23T15:33:07.261Z,5.53
2018-07-23T15:35:36.084Z,5.33
2018-07-23T15:38:04.887Z,5.20
2018-07-23T15:40:33.742Z,4.70
2018-07-23T15:43:02.414Z,5.10
2018-07-23T15:45:31.674Z,5.15
2018-07-23T15:48:00.342Z,4.90
2018-07-23T15:50:29.331Z,5.22
2018-07-23T15:52:58.018Z,4.85
2018-07-23T15:55:27.430Z,4.83
2018-07-23T15:57:56.083Z,5.33
2018-07-23T16:00:26.079Z,4.45
2018-07-23T16:02:54.658Z,4.87
2018-07-23T16:05:23.177Z,5.53
2018-07-23T16:07:51.663Z,5.50
2018-07-23T16:10:20.351Z,6.23
2018-07-23T16:12:48.978Z,5.53
2018-07-23T16:15:17.648Z,6.00
2018-07-23T16:17:46.312Z,6.10
2018-07-23T16:20:14.994Z,6.33
2018-07-23T16:22:43.690Z,6.30
2018-07-23T16:25:12.474Z,6.23
2018-07-23T16:27:40.951Z,6.40
2018-07-23T16:30:10.064Z,6.50
2018-07-23T16:32:38.603Z,7.00
2018-07-23T16:35:09.070Z,6.77
2018-07-23T16:37:37.757Z,6.20
2018-07-23T16:40:06.523Z,7.00
2018-07-23T16:42:35.321Z,7.00
2018-07-23T16:45:03.918Z,7.17
2018-07-23T16:47:33.379Z,6.40
2018-07-23T16:50:01.877Z,6.27
2018-07-23T16:52:30.553Z,5.40
2018-07-23T16:54:59.151Z,5.40
2018-07-23T16:57:27.663Z,5.23
2018-07-23T16:59:56.227Z,5.80
2018-07-23T17:02:24.881Z,5.90
2018-07-23T17:04:55.022Z,5.87
2018-07-23T17:07:23.539Z,5.67
2018-07-23T17:09:52.297Z,5.87
2018-07-23T17:12:20.806Z,5.43
2018-07-23T17:14:49.296Z,5.17
2018-07-23T17:17:17.850Z,5.10
2018-07-23T17:19:46.384Z,5.53
2018-07-23T17:22:14.886Z,5.40
2018-07-23T17:24:43.556Z,6.40
2018-07-23T17:27:12.243Z,6.90
2018-07-23T17:29:41.138Z,6.80
2018-07-23T17:32:09.651Z,7.23
2018-07-23T17:34:38.205Z,6.50
2018-07-23T17:37:06.741Z,6.93
2018-07-23T17:39:35.311Z,6.50
2018-07-23T17:42:03.901Z,6.23
2018-07-23T17:44:32.691Z,7.17
2018-07-23T17:47:01.146Z,6.83
2018-07-23T17:49:29.778Z,6.70
2018-07-23T17:51:58.227Z,6.30
2018-07-23T17:54:26.760Z,6.87
2018-07-23T17:56:55.422Z,7.00
2018-07-23T17:59:23.887Z,7.77
2018-07-23T18:01:53.780Z,7.30
2018-07-23T18:04:22.516Z,7.20
2018-07-23T18:06:51.059Z,7.90
2018-07-23T18:09:19.665Z,7.80
2018-07-23T18:11:48.196Z,7.40
2018-07-23T18:14:16.836Z,8.03
2018-07-23T18:16:45.748Z,8.33
2018-07-23T18:19:14.199Z,8.00
2018-07-23T18:21:44.402Z,8.90
2018-07-23T18:24:12.987Z,8.50
2018-07-23T18:26:41.664Z,9.27
2018-07-23T18:29:10.491Z,8.50
2018-07-23T18:31:39.118Z,8.77
2018-07-23T18:34:08.011Z,9.10
2018-07-23T18:36:36.529Z,8.97
2018-07-23T18:39:08.585Z,9.77
2018-07-23T18:41:37.503Z,10.17
2018-07-23T18:44:06.207Z,9.30
2018-07-23T18:46:34.796Z,9.33
2018-07-23T18:49:24.841Z,10.30
2018-07-23T18:51:54.252Z,9.90
2018-07-23T18:54:24.027Z,9.90
2018-07-23T18:56:54.165Z,10.43
2018-07-23T18:59:23.080Z,11.13
2018-07-23T19:01:52.292Z,10.93
2018-07-23T19:04:20.981Z,10.70
2018-07-23T19:06:50.151Z,10.20
2018-07-23T19:09:19.875Z,10.53
2018-07-23T19:11:49.727Z,11.43
2018-07-23T19:14:18.762Z,10.37
2018-07-23T19:16:47.863Z,11.33
2018-07-23T19:19:16.438Z,11.17
2018-07-23T19:21:45.008Z,11.77
2018-07-23T19:24:13.571Z,11.03
2018-07-23T19:26:42.207Z,11.83
2018-07-23T19:29:10.813Z,11.83
2018-07-23T19:31:39.606Z,12.07
2018-07-23T19:34:09.583Z,11.57
2018-07-23T19:36:38.103Z,11.97
2018-07-23T19:39:09.089Z,12.03
2018-07-23T19:41:38.287Z,11.50
2018-07-23T19:44:07.496Z,13.10
2018-07-23T19:46:36.015Z,12.57
2018-07-23T19:49:04.738Z,12.73
2018-07-23T19:51:33.494Z,13.30
2018-07-23T19:54:02.111Z,12.13
2018-07-23T19:56:30.799Z,12.63
2018-07-23T19:58:59.286Z,12.60
2018-07-23T20:01:28.009Z,12.70
2018-07-23T20:03:56.528Z,12.87
2018-07-23T20:06:26.262Z,13.50
2018-07-23T20:08:56.045Z,12.90
2018-07-23T20:11:25.363Z,13.53
2018-07-23T20:13:54.151Z,13.40
2018-07-23T20:16:23.459Z,13.20
2018-07-23T20:18:51.999Z,13.63
2018-07-23T20:21:20.645Z,13.13
2018-07-23T20:23:49.294Z,14.27
2018-07-23T20:26:17.947Z,12.77
2018-07-23T20:28:46.403Z,13.63
2018-07-23T20:31:15.017Z,13.83
2018-07-23T20:33:44.989Z,14.43
2018-07-23T20:36:13.720Z,13.87
2018-07-23T20:38:42.235Z,13.43
2018-07-23T20:41:10.901Z,15.27
2018-07-23T20:43:39.606Z,15.47
2018-07-23T20:46:07.714Z,15.37
2018-07-23T20:48:36.167Z,14.53
2018-07-23T20:51:04.647Z,14.77
2018-07-23T20:53:33.173Z,14.57
2018-07-23T20:56:01.599Z,14.90
2018-07-23T20:58:30.115Z,16.13
2018-07-23T21:00:59.022Z,15.07
2018-07-23T21:03:27.699Z,14.23
2018-07-23T21:05:56.266Z,14.27
2018-07-23T21:08:24.865Z,14.83
2018-07-23T21:10:53.358Z,15.57
2018-07-23T21:13:21.854Z,14.87
2018-07-23T21:15:50.631Z,15.33
2018-07-23T21:18:19.112Z,15.13
2018-07-23T21:20:47.536Z,14.33
2018-07-23T21:23:16.043Z,15.07
2018-07-23T21:25:44.619Z,14.93
2018-07-23T21:28:13.240Z,14.00
2018-07-23T21:30:41.727Z,14.70
2018-07-23T21:33:10.252Z,15.83
2018-07-23T21:35:38.779Z,15.47
2018-07-23T21:38:07.330Z,15.13
2018-07-23T21:40:35.834Z,15.70
2018-07-23T21:43:04.411Z,16.77
2018-07-23T21:45:33.047Z,15.00
2018-07-23T21:48:01.897Z,14.63
2018-07-23T21:50:30.513Z,15.70
2018-07-23T21:52:59.163Z,15.30
2018-07-23T21:55:27.705Z,15.90
2018-07-23T21:57:56.210Z,15.77
2018-07-23T22:00:24.807Z,15.40
2018-07-23T22:02:54.960Z,15.57
2018-07-23T22:05:23.447Z,17.30
2018-07-23T22:07:52.191Z,16.23
2018-07-23T22:10:20.625Z,16.77
2018-07-23T22:12:49.213Z,16.60
2018-07-23T22:15:17.680Z,16.43
2018-07-23T22:17:46.405Z,15.73
2018-07-23T22:20:14.990Z,15.27
2018-07-23T22:22:43.458Z,15.97
2018-07-23T22:25:13.351Z,14.63
2018-07-23T22:27:42.058Z,16.13
2018-07-23T22:30:10.579Z,14.93
2018-07-23T22:32:39.036Z,16.00
2018-07-23T22:35:08.525Z,15.67
2018-07-23T22:37:37.086Z,15.77
2018-07-23T22:40:05.668Z,16.57
2018-07-23T22:42:34.124Z,16.27
2018-07-23T22:45:02.736Z,15.23
2018-07-23T22:47:31.551Z,16.97
2018-07-23T22:50:00.083Z,16.47
2018-07-23T22:52:28.642Z,17.03
2018-07-23T22:54:58.238Z,17.63
2018-07-23T22:57:26.708Z,17.37
2018-07-23T22:59:55.177Z,17.13
2018-07-23T23:02:23.750Z,15.77
2018-07-23T23:04:52.316Z,17.17
2018-07-23T23:07:20.767Z,16.53
2018-07-23T23:09:49.658Z,16.63
2018-07-23T23:12:18.282Z,16.40
2018-07-23T23:14:46.752Z,17.43
2018-07-23T23:17:15.234Z,16.83
2018-07-23T23:19:43.707Z,17.10
2018-07-23T23:22:12.162Z,16.50
2018-07-23T23:24:40.720Z,15.63
2018-07-23T23:27:09.466Z,17.17
2018-07-23T23:29:37.937Z,17.37
2018-07-23T23:32:06.362Z,16.73
2018-07-23T23:34:35.279Z,16.00
2018-07-23T23:37:04.432Z,17.53
2018-07-23T23:39:33.098Z,16.73
2018-07-23T23:42:02.262Z,16.53
2018-07-23T23:44:30.841Z,16.13
2018-07-23T23:46:59.323Z,17.10
2018-07-23T23:49:28.008Z,15.93
2018-07-23T23:51:56.622Z,17.03
2018-07-23T23:54:25.252Z,17.07
2018-07-23T23:56:53.729Z,18.03
2018-07-23T23:59:22.242Z,17.37
